Time;durP1;ratioP1;P1;durP2;ratioP2;P2;SDS_P1;SDS_P2;PMS_P1;PMS_P2;Temp;Humidity;BMP_temperature;BMP_pressure;BME280_temperature;BME280_humidity;BME280_pressure;Samples;Min_cycle;Max_cycle;Signal;HPM_P1;HPM_P2
2022/10/03 00:01:28;;;;;;;7.85;3.67;;;;;;;10.25;100.00;98676.56;2635212;28;20818;-93
2022/10/03 00:03:02;;;;;;;8.68;3.80;;;;;;;10.28;100.00;98681.72;2633847;28;20490;-92
2022/10/03 00:04:59;;;;;;;7.10;3.17;;;;;;;10.27;100.00;98682.59;2633483;28;20083;-94
2022/10/03 00:06:21;;;;;;;5.80;3.40;;;;;;;10.31;100.00;98681.63;2634457;28;20055;-94
2022/10/03 00:08:08;;;;;;;6.85;3.33;;;;;;;10.16;100.00;98688.09;2635993;28;20082;-96
2022/10/03 00:09:42;;;;;;;7.65;3.38;;;;;;;10.11;100.00;98683.84;2634825;28;20126;-93
2022/10/03 00:11:37;;;;;;;8.25;3.33;;;;;;;9.97;100.00;98692.88;2632894;28;20051;-92
2022/10/03 00:13:22;;;;;;;6.50;3.80;;;;;;;10.14;100.00;98692.50;2634388;28;20109;-93
2022/10/03 00:15:04;;;;;;;9.10;3.78;;;;;;;10.10;100.00;98689.97;2634069;28;20048;-91
2022/10/03 00:16:35;;;;;;;5.32;3.17;;;;;;;9.84;100.00;98692.25;2633573;28;20047;-93
2022/10/03 00:18:12;;;;;;;9.30;3.88;;;;;;;10.04;100.00;98702.28;2633607;28;20054;-92
2022/10/03 00:19:53;;;;;;;9.07;3.90;;;;;;;10.05;100.00;98697.94;2633875;28;20105;-94
2022/10/03 00:21:24;;;;;;;8.07;3.63;;;;;;;10.09;100.00;98701.34;2633058;28;20047;-94
2022/10/03 00:22:54;;;;;;;9.45;3.47;;;;;;;9.98;100.00;98705.03;2635531;28;20109;-94
2022/10/03 00:24:10;;;;;;;5.15;3.67;;;;;;;10.06;100.00;98707.50;2634718;28;20056;-93
2022/10/03 00:25:44;;;;;;;8.95;3.55;;;;;;;10.03;100.00;98702.34;2633461;28;20495;-93
2022/10/03 00:27:00;;;;;;;5.25;3.15;;;;;;;10.11;100.00;98702.16;2632744;28;20044;-93
2022/10/03 00:28:35;;;;;;;9.13;3.35;;;;;;;10.14;100.00;98702.09;2634126;28;20044;-93
2022/10/03 00:29:50;;;;;;;5.90;3.25;;;;;;;10.02;100.00;98701.47;2634887;28;20093;-94
2022/10/03 00:31:07;;;;;;;6.90;3.47;;;;;;;10.07;100.00;98696.13;2634894;28;20043;-93
2022/10/03 00:32:44;;;;;;;8.63;3.63;;;;;;;10.01;100.00;98704.97;2634467;28;20090;-94
2022/10/03 00:34:31;;;;;;;8.10;3.47;;;;;;;10.02;100.00;98701.47;2634787;28;20098;-93
2022/10/03 00:36:17;;;;;;;5.10;3.35;;;;;;;9.98;100.00;98701.56;2636280;28;20044;-95
2022/10/03 00:37:44;;;;;;;9.25;3.60;;;;;;;9.97;100.00;98702.44;2635632;28;20055;-96
2022/10/03 00:39:38;;;;;;;7.00;3.40;;;;;;;10.05;100.00;98705.78;2633675;28;20055;-95
2022/10/03 00:41:12;;;;;;;;;;;;;;;10.04;100.00;98709.28;2601816;28;20048;-92
2022/10/03 00:43:15;;;;;;;8.18;3.30;;;;;;;10.13;100.00;98708.22;2634691;28;19924;-94
2022/10/03 00:44:49;;;;;;;;;;;;;;;10.14;100.00;98705.59;2635860;28;20116;-96
2022/10/03 00:46:35;;;;;;;6.85;3.13;;;;;;;10.15;100.00;98711.66;2634325;28;19962;-94
2022/10/03 00:48:06;;;;;;;5.30;3.65;;;;;;;9.98;100.00;98719.88;2635440;28;20044;-94
2022/10/03 00:49:24;;;;;;;5.88;3.50;;;;;;;9.85;100.00;98712.31;2638891;28;20480;-96
2022/10/03 00:50:57;;;;;;;6.88;3.50;;;;;;;10.02;100.00;98716.31;2637706;28;20059;-95
2022/10/03 00:52:44;;;;;;;10.43;3.83;;;;;;;9.96;100.00;98714.69;2636087;28;20044;-94
2022/10/03 00:54:24;;;;;;;7.13;3.53;;;;;;;9.93;100.00;98720.00;2602567;28;20047;-95
2022/10/03 00:56:07;;;;;;;6.63;3.65;;;;;;;10.02;100.00;98717.16;2633760;28;20059;-94
2022/10/03 00:57:43;;;;;;;11.18;3.53;;;;;;;10.11;100.00;98717.88;2634535;28;20078;-93
2022/10/03 00:59:47;;;;;;;6.53;3.40;;;;;;;10.15;100.00;98724.75;2635964;28;20505;-94
2022/10/03 01:01:21;;;;;;;8.82;3.72;;;;;;;10.07;100.00;98729.31;2636321;28;20040;-95
2022/10/03 01:03:05;;;;;;;8.48;3.72;;;;;;;10.18;100.00;98728.16;2636648;28;20059;-94
2022/10/03 01:04:29;;;;;;;;;;;;;;;10.16;100.00;98729.09;2636887;28;20052;-94
2022/10/03 01:05:59;;;;;;;7.47;3.53;;;;;;;10.19;100.00;98731.63;2637353;28;19942;-94
2022/10/03 01:07:32;;;;;;;8.27;3.85;;;;;;;10.12;100.00;98730.06;2638730;28;20081;-93
2022/10/03 01:09:15;;;;;;;8.63;3.72;;;;;;;10.16;100.00;98736.94;2637065;28;20048;-95
2022/10/03 01:10:38;;;;;;;10.77;3.30;;;;;;;10.15;100.00;98735.22;2634452;28;20066;-94
2022/10/03 01:12:15;;;;;;;4.85;3.33;;;;;;;10.08;100.00;98738.88;2632753;28;20096;-96
2022/10/03 01:13:55;;;;;;;7.15;3.13;;;;;;;9.97;100.00;98734.72;2635314;28;20079;-94
2022/10/03 01:15:28;;;;;;;11.63;3.88;;;;;;;9.93;100.00;98743.53;2635116;28;20811;-94
2022/10/03 01:17:03;;;;;;;;;;;;;;;9.86;100.00;98741.91;2634748;28;20048;-93
2022/10/03 01:18:51;;;;;;;5.28;3.25;;;;;;;9.91;100.00;98747.06;2633961;28;19977;-94
2022/10/03 01:20:43;;;;;;;6.22;3.65;;;;;;;10.02;100.00;98747.69;2633387;28;20044;-93
2022/10/03 01:22:15;;;;;;;5.00;3.25;;;;;;;9.68;100.00;98749.25;2634884;28;20075;-95
2022/10/03 01:23:50;;;;;;;6.93;3.77;;;;;;;9.75;100.00;98748.22;2637783;28;20048;-95
2022/10/03 01:25:40;;;;;;;5.50;3.60;;;;;;;9.83;100.00;98744.59;2635483;28;20484;-95
2022/10/03 01:27:03;;;;;;;6.80;3.88;;;;;;;9.92;100.00;98757.50;2635202;28;20052;-94
2022/10/03 01:30:23;;;;;;;5.97;3.63;;;;;;;10.09;100.00;98741.44;2635725;28;20043;-94
2022/10/03 01:32:02;;;;;;;9.65;3.80;;;;;;;10.12;100.00;98748.38;2634276;28;20052;-94
2022/10/03 01:33:41;;;;;;;5.22;3.35;;;;;;;10.07;100.00;98747.63;2633722;28;20501;-91
2022/10/03 01:35:21;;;;;;;6.13;3.42;;;;;;;10.13;100.00;98745.72;2633511;28;20457;-93
2022/10/03 01:37:14;;;;;;;7.07;3.40;;;;;;;10.18;100.00;98732.53;2633975;28;20089;-92
2022/10/03 01:38:47;;;;;;;5.63;3.22;;;;;;;10.24;100.00;98727.16;2633137;28;20455;-94
2022/10/03 01:40:25;;;;;;;7.75;3.85;;;;;;;10.25;100.00;98728.88;2634288;28;20471;-93
2022/10/03 01:41:51;;;;;;;5.25;3.30;;;;;;;10.26;100.00;98741.06;2633312;28;20147;-94
2022/10/03 01:43:25;;;;;;;6.25;3.47;;;;;;;10.21;100.00;98740.31;2633198;28;20054;-93
2022/10/03 01:45:06;;;;;;;5.43;3.25;;;;;;;10.23;100.00;98749.00;2632738;28;20055;-94
2022/10/03 01:46:35;;;;;;;7.30;3.00;;;;;;;10.17;100.00;98754.34;2633436;28;20433;-94
2022/10/03 01:48:39;;;;;;;7.13;3.55;;;;;;;10.20;100.00;98751.69;2633016;28;20057;-95
2022/10/03 01:50:18;;;;;;;9.30;3.60;;;;;;;10.27;100.00;98753.25;2580623;28;20046;-93
2022/10/03 01:52:13;;;;;;;10.50;3.40;;;;;;;10.26;100.00;98758.50;2617231;28;20044;-92
2022/10/03 01:53:37;;;;;;;10.13;3.25;;;;;;;10.02;100.00;98758.16;2633741;28;20048;-94
2022/10/03 01:55:05;;;;;;;5.05;3.20;;;;;;;10.11;100.00;98759.72;2634088;28;20051;-94
2022/10/03 01:56:43;;;;;;;5.60;3.30;;;;;;;10.18;100.00;98756.06;2633624;28;20051;-93
2022/10/03 01:58:11;;;;;;;8.98;3.70;;;;;;;10.17;100.00;98760.47;2631605;28;20441;-92
2022/10/03 01:59:46;;;;;;;6.28;3.45;;;;;;;10.16;100.00;98763.09;2632938;28;20052;-92
2022/10/03 02:01:40;;;;;;;5.70;3.10;;;;;;;9.95;100.00;98762.66;2631099;28;20141;-92
2022/10/03 02:03:10;;;;;;;6.18;3.00;;;;;;;9.91;100.00;98762.75;2617319;28;20051;-91
2022/10/03 02:04:50;;;;;;;6.22;3.03;;;;;;;10.02;100.00;98768.63;2632367;28;20083;-93
2022/10/03 02:06:23;;;;;;;5.85;3.08;;;;;;;9.93;100.00;98772.28;2632323;28;20058;-92
2022/10/03 02:07:45;;;;;;;5.97;3.13;;;;;;;9.89;100.00;98778.47;2632132;28;20052;-93
2022/10/03 02:09:26;;;;;;;5.57;2.95;;;;;;;9.71;100.00;98774.47;2633332;28;20552;-95
2022/10/03 02:11:08;;;;;;;5.80;3.15;;;;;;;9.84;100.00;98770.69;2628376;28;20063;-92
2022/10/03 02:12:23;;;;;;;7.90;2.85;;;;;;;9.67;100.00;98772.78;2622664;28;20514;-96
2022/10/03 02:13:57;;;;;;;7.60;3.15;;;;;;;9.64;100.00;98773.72;2625330;28;20079;-93
2022/10/03 02:15:26;;;;;;;6.57;3.38;;;;;;;9.79;100.00;98775.16;2632914;28;20154;-94
2022/10/03 02:16:44;;;;;;;6.18;3.50;;;;;;;9.77;100.00;98770.84;2632753;28;20055;-94
2022/10/03 02:18:14;;;;;;;6.15;3.00;;;;;;;9.89;100.00;98776.72;2632739;28;20130;-94
2022/10/03 02:19:50;;;;;;;5.95;2.90;;;;;;;9.92;100.00;98773.19;2633254;28;20043;-95
2022/10/03 02:21:17;;;;;;;3.85;2.65;;;;;;;9.99;100.00;98771.31;2631164;28;20119;-92
2022/10/03 02:22:41;;;;;;;5.57;2.97;;;;;;;9.99;100.00;98774.78;2634085;28;20537;-93
2022/10/03 02:24:05;;;;;;;6.18;2.90;;;;;;;10.02;100.00;98773.84;2632795;28;20056;-93
2022/10/03 02:25:24;;;;;;;8.75;3.38;;;;;;;9.92;100.00;98774.94;2633750;28;20271;-96
2022/10/03 02:27:11;;;;;;;6.40;2.53;;;;;;;9.92;100.00;98775.81;2634180;28;20050;-95
2022/10/03 02:28:46;;;;;;;5.57;3.03;;;;;;;9.94;100.00;98776.63;2631930;28;20077;-96
2022/10/03 02:30:25;;;;;;;4.78;2.90;;;;;;;9.98;100.00;98780.03;2632182;28;20098;-93
2022/10/03 02:32:09;;;;;;;5.43;2.60;;;;;;;9.87;100.00;98786.34;2633860;28;20085;-95
2022/10/03 02:33:43;;;;;;;5.35;2.90;;;;;;;9.57;100.00;98788.66;2632878;28;20052;-94
2022/10/03 02:35:32;;;;;;;4.45;2.78;;;;;;;9.62;100.00;98783.31;2638139;28;20048;-96
2022/10/03 02:37:18;;;;;;;5.70;3.03;;;;;;;9.56;100.00;98783.44;2632222;28;20039;-94
2022/10/03 02:39:00;;;;;;;4.60;2.70;;;;;;;9.61;100.00;98784.22;2633639;28;20047;-95
2022/10/03 02:40:44;;;;;;;4.78;2.90;;;;;;;9.74;100.00;98779.63;2632509;28;20051;-94
2022/10/03 02:42:24;;;;;;;7.97;2.80;;;;;;;9.70;100.00;98776.22;2633531;28;20498;-94
2022/10/03 02:44:12;;;;;;;9.80;3.22;;;;;;;9.68;100.00;98777.13;2631757;28;20044;-93
2022/10/03 02:45:37;;;;;;;7.38;2.90;;;;;;;9.93;100.00;98779.25;2630912;28;20418;-94
2022/10/03 02:47:06;;;;;;;10.63;3.20;;;;;;;9.95;100.00;98782.72;2632196;28;20051;-92
2022/10/03 02:48:52;;;;;;;5.10;2.60;;;;;;;10.02;100.00;98786.94;2632352;28;20528;-93
2022/10/03 02:50:32;;;;;;;5.47;3.08;;;;;;;10.11;100.00;98786.72;2632588;28;20846;-95
2022/10/03 02:52:14;;;;;;;5.13;2.70;;;;;;;10.24;100.00;98787.34;2634151;28;20061;-93
2022/10/03 02:54:07;;;;;;;6.15;2.95;;;;;;;10.17;100.00;98789.25;2631254;28;20052;-91
2022/10/03 02:56:00;;;;;;;7.57;3.00;;;;;;;10.18;100.00;98782.22;2634537;28;20438;-91
2022/10/03 02:57:35;;;;;;;7.85;2.85;;;;;;;10.32;100.00;98782.81;2633432;28;20059;-94
2022/10/03 02:58:59;;;;;;;11.43;2.53;;;;;;;10.28;100.00;98785.53;2633902;28;20044;-93
2022/10/03 03:00:31;;;;;;;5.32;2.47;;;;;;;10.32;100.00;98785.41;2635120;28;20094;-91
2022/10/03 03:02:11;;;;;;;8.65;2.90;;;;;;;10.39;100.00;98783.53;2634050;28;20055;-92
2022/10/03 03:03:39;;;;;;;4.65;2.78;;;;;;;10.49;100.00;98779.00;2635688;28;20631;-93
2022/10/03 03:05:24;;;;;;;6.65;2.65;;;;;;;10.45;100.00;98786.06;2634934;28;20162;-92
2022/10/03 03:07:10;;;;;;;4.10;2.30;;;;;;;10.40;100.00;98787.88;2635809;28;20069;-93
2022/10/03 03:09:03;;;;;;;6.72;3.20;;;;;;;10.28;100.00;98796.84;2622273;28;20043;-95
2022/10/03 03:10:47;;;;;;;8.98;3.30;;;;;;;10.32;100.00;98798.50;2635165;28;20063;-92
2022/10/03 03:12:12;;;;;;;8.77;3.22;;;;;;;10.34;100.00;98805.47;2634966;28;20044;-92
2022/10/03 03:13:41;;;;;;;9.52;3.13;;;;;;;10.30;100.00;98800.28;2634593;28;20430;-90
2022/10/03 03:15:40;;;;;;;6.05;2.80;;;;;;;10.44;100.00;98797.44;2632291;28;20540;-93
2022/10/03 03:16:59;;;;;;;5.80;2.22;;;;;;;10.35;100.00;98801.97;2634309;28;20082;-91
2022/10/03 03:18:29;;;;;;;9.35;2.78;;;;;;;10.30;100.00;98804.69;2635014;28;20047;-92
2022/10/03 03:20:27;;;;;;;5.70;2.30;;;;;;;10.50;100.00;98800.81;2634768;28;20051;-91
2022/10/03 03:22:09;;;;;;;7.75;1.90;;;;;;;10.58;100.00;98802.34;2634148;28;20055;-92
2022/10/03 03:23:50;;;;;;;5.43;2.30;;;;;;;10.78;100.00;98801.06;2635695;28;20052;-95
2022/10/03 03:25:24;;;;;;;8.50;2.13;;;;;;;10.76;100.00;98799.34;2633986;28;20044;-92
2022/10/03 03:27:03;;;;;;;5.90;2.17;;;;;;;10.92;100.00;98792.84;2632309;28;20065;-91
2022/10/03 03:28:39;;;;;;;4.07;2.05;;;;;;;10.78;100.00;98790.59;2633150;28;20040;-91
2022/10/03 03:30:16;;;;;;;4.35;2.13;;;;;;;10.81;100.00;98793.13;2634172;28;20056;-90
2022/10/03 03:31:45;;;;;;;6.32;2.40;;;;;;;10.78;100.00;98793.19;2632950;28;20063;-91
2022/10/03 03:33:28;;;;;;;8.50;2.25;;;;;;;10.58;100.00;98794.50;2635078;28;20465;-91
2022/10/03 03:34:49;;;;;;;3.33;1.90;;;;;;;10.30;100.00;98786.38;2633366;28;20486;-89
2022/10/03 03:36:32;;;;;;;3.85;2.10;;;;;;;10.26;100.00;98792.53;2633100;28;20048;-91
2022/10/03 03:38:16;;;;;;;7.28;2.03;;;;;;;10.29;100.00;98802.97;2633782;28;20048;-89
2022/10/03 03:39:40;;;;;;;6.95;2.10;;;;;;;10.47;100.00;98806.94;2633920;28;20059;-89
2022/10/03 03:41:18;;;;;;;6.25;2.15;;;;;;;10.63;100.00;98806.66;2633041;28;20051;-88
2022/10/03 03:43:02;;;;;;;2.50;1.73;;;;;;;10.53;100.00;98811.19;2633285;28;20052;-90
2022/10/03 03:44:26;;;;;;;3.35;2.08;;;;;;;10.64;100.00;98810.97;2633740;28;20391;-90
2022/10/03 03:46:03;;;;;;;6.80;2.03;;;;;;;10.57;100.00;98812.88;2632289;28;20051;-89
2022/10/03 03:47:24;;;;;;;4.22;1.92;;;;;;;10.50;100.00;98806.91;2632746;28;20055;-89
2022/10/03 03:49:00;;;;;;;7.47;2.30;;;;;;;10.59;100.00;98809.31;2634875;28;20422;-89
2022/10/03 03:50:42;;;;;;;7.40;2.65;;;;;;;10.67;100.00;98814.38;2634024;28;21038;-91
2022/10/03 03:52:00;;;;;;;7.97;2.40;;;;;;;10.34;100.00;98822.03;2634467;28;20048;-90
2022/10/03 03:53:35;;;;;;;5.45;1.98;;;;;;;10.45;100.00;98811.38;2634205;28;20883;-88
2022/10/03 03:55:18;;;;;;;4.90;2.45;;;;;;;10.57;100.00;98802.41;2634157;28;20825;-89
2022/10/03 03:56:36;;;;;;;5.82;2.60;;;;;;;10.62;100.00;98812.78;2632769;28;20422;-89
2022/10/03 03:58:01;;;;;;;6.00;2.83;;;;;;;10.50;100.00;98806.91;2632023;28;20510;-89
2022/10/03 03:59:29;;;;;;;4.22;2.13;;;;;;;10.45;100.00;98804.38;2633156;28;20076;-89
2022/10/03 04:01:15;;;;;;;4.10;2.22;;;;;;;10.31;100.00;98806.41;2633660;28;20056;-90
2022/10/03 04:02:52;;;;;;;7.10;2.10;;;;;;;9.86;100.00;98812.53;2632654;28;20054;-90
2022/10/03 04:04:07;;;;;;;5.03;1.80;;;;;;;10.15;100.00;98817.19;2632115;28;20835;-89
2022/10/03 04:05:44;;;;;;;6.72;2.40;;;;;;;10.27;100.00;98821.31;2634339;28;20044;-89
2022/10/03 04:07:35;;;;;;;5.97;1.80;;;;;;;10.34;100.00;98818.53;2633206;28;20048;-90
2022/10/03 04:09:21;;;;;;;5.00;2.55;;;;;;;10.28;100.00;98828.25;2631896;28;20513;-91
2022/10/03 04:10:46;;;;;;;9.02;2.28;;;;;;;10.20;100.00;98835.41;2633991;28;20044;-89
2022/10/03 04:12:14;;;;;;;5.55;2.53;;;;;;;10.22;100.00;98831.00;2632984;28;20048;-89
2022/10/03 04:13:46;;;;;;;5.57;2.47;;;;;;;10.36;100.00;98829.88;2634827;28;20055;-88
2022/10/03 04:15:14;;;;;;;8.18;2.28;;;;;;;10.35;100.00;98836.00;2633714;28;20058;-91
2022/10/03 04:18:56;;;;;;;8.60;2.20;;;;;;;10.65;100.00;98837.13;2631659;28;20606;-90
2022/10/03 04:20:36;;;;;;;5.60;2.55;;;;;;;10.58;100.00;98840.78;2631930;28;20052;-89
2022/10/03 04:22:02;;;;;;;7.28;2.20;;;;;;;10.39;100.00;98835.03;2622141;28;20558;-87
2022/10/03 04:23:37;;;;;;;4.15;2.15;;;;;;;10.65;100.00;98837.13;2631795;28;20444;-89
2022/10/03 04:25:05;;;;;;;5.72;1.90;;;;;;;10.64;100.00;98831.94;2632338;28;20619;-90
2022/10/03 04:26:36;;;;;;;3.75;2.08;;;;;;;10.73;100.00;98819.50;2632178;28;20077;-90
2022/10/03 04:27:52;;;;;;;5.88;2.17;;;;;;;10.76;100.00;98822.94;2632455;28;20048;-89
2022/10/03 04:29:15;;;;;;;4.50;2.30;;;;;;;10.76;100.00;98815.94;2631911;28;20635;-89
2022/10/03 04:30:52;;;;;;;6.00;2.00;;;;;;;10.65;100.00;98828.41;2631736;28;20048;-91
2022/10/03 04:32:28;;;;;;;6.53;2.05;;;;;;;10.32;100.00;98829.06;2631547;28;20089;-89
2022/10/03 04:34:09;;;;;;;5.45;2.08;;;;;;;10.50;100.00;98829.59;2633687;28;20040;-90
2022/10/03 04:36:13;;;;;;;3.72;1.90;;;;;;;10.28;100.00;98823.03;2631360;28;20047;-89
2022/10/03 04:37:48;;;;;;;4.07;1.80;;;;;;;10.47;100.00;98824.44;2580097;28;20073;-89
2022/10/03 04:39:17;;;;;;;5.38;1.90;;;;;;;10.54;100.00;98834.75;2584698;28;20054;-88
2022/10/03 04:40:52;;;;;;;6.72;2.25;;;;;;;10.40;100.00;98831.53;2633717;28;20052;-89
2022/10/03 04:42:12;;;;;;;5.47;2.17;;;;;;;10.63;100.00;98828.44;2632177;28;20044;-89
2022/10/03 04:43:58;;;;;;;4.95;2.17;;;;;;;10.68;100.00;98830.97;2622059;28;20495;-89
2022/10/03 04:45:51;;;;;;;6.32;2.30;;;;;;;10.36;100.00;98824.63;2628743;28;20447;-90
2022/10/03 04:47:25;;;;;;;4.10;2.10;;;;;;;10.55;100.00;98815.50;2631748;28;20054;-89
2022/10/03 04:49:18;;;;;;;3.30;1.90;;;;;;;10.65;100.00;98825.78;2632152;28;20040;-88
2022/10/03 04:50:43;;;;;;;5.78;2.42;;;;;;;10.51;100.00;98834.81;2634224;28;20505;-89
2022/10/03 04:52:10;;;;;;;4.50;2.30;;;;;;;10.63;100.00;98830.22;2631512;28;20063;-90
2022/10/03 04:53:39;;;;;;;10.65;2.70;;;;;;;10.54;100.00;98826.88;2633842;28;20050;-89
2022/10/03 04:55:19;;;;;;;5.70;2.30;;;;;;;10.55;100.00;98840.84;2631966;28;20056;-89
2022/10/03 04:56:54;;;;;;;3.58;2.20;;;;;;;10.44;100.00;98835.81;2632411;28;20382;-88
2022/10/03 04:59:03;;;;;;;4.78;2.17;;;;;;;10.49;100.00;98836.59;2631614;28;20080;-88
2022/10/03 05:00:28;;;;;;;5.05;2.28;;;;;;;10.35;100.00;98830.75;2591944;28;20058;-88
2022/10/03 05:02:01;;;;;;;7.63;2.53;;;;;;;10.43;100.00;98834.09;2589770;28;20056;-89
2022/10/03 05:03:42;;;;;;;7.25;2.00;;;;;;;10.55;100.00;98835.63;2634406;28;20533;-89
2022/10/03 05:05:23;;;;;;;7.28;2.20;;;;;;;10.74;100.00;98831.69;2632542;28;20487;-90
2022/10/03 05:07:00;;;;;;;5.05;2.20;;;;;;;10.65;100.00;98836.28;2631006;28;20060;-92
2022/10/03 05:08:28;;;;;;;5.03;1.88;;;;;;;10.83;100.00;98828.00;2633651;28;20055;-88
2022/10/03 05:09:55;;;;;;;7.30;1.92;;;;;;;10.88;100.00;98831.34;2631043;28;20044;-88
2022/10/03 05:11:35;;;;;;;6.28;2.63;;;;;;;10.81;100.00;98831.53;2631849;28;20082;-88
2022/10/03 05:12:54;;;;;;;8.20;2.15;;;;;;;10.70;100.00;98837.91;2631550;28;20083;-89
2022/10/03 05:14:17;;;;;;;6.20;2.25;;;;;;;10.97;100.00;98839.91;2633078;28;20056;-88
2022/10/03 05:15:47;;;;;;;5.95;1.98;;;;;;;10.99;100.00;98835.50;2633274;28;20051;-90
2022/10/03 05:17:19;;;;;;;5.28;2.15;;;;;;;10.86;100.00;98835.78;2632715;28;20044;-88
2022/10/03 05:18:38;;;;;;;5.50;2.10;;;;;;;11.09;100.00;98833.50;2633009;28;20860;-90
2022/10/03 05:20:02;;;;;;;5.03;1.92;;;;;;;11.07;100.00;98843.16;2631665;28;20097;-91
2022/10/03 05:21:30;;;;;;;6.13;2.30;;;;;;;11.21;100.00;98840.25;2630435;28;20048;-90
2022/10/03 05:22:54;;;;;;;5.82;1.95;;;;;;;11.10;100.00;98841.34;2631103;28;20352;-88
2022/10/03 05:24:29;;;;;;;7.07;2.65;;;;;;;11.04;100.00;98838.00;2631024;28;20055;-87
2022/10/03 05:26:15;;;;;;;5.53;2.10;;;;;;;11.11;100.00;98844.84;2632577;28;20127;-86
2022/10/03 05:28:00;;;;;;;3.85;2.00;;;;;;;11.22;100.00;98834.09;2631090;28;20776;-88
2022/10/03 05:29:34;;;;;;;8.18;2.25;;;;;;;11.10;100.00;98843.09;2630907;28;20083;-87
2022/10/03 05:31:11;;;;;;;5.50;2.40;;;;;;;11.03;100.00;98847.63;2631158;28;20082;-88
2022/10/03 05:32:35;;;;;;;3.55;1.80;;;;;;;11.07;100.00;98845.78;2631987;28;20044;-88
2022/10/03 05:34:01;;;;;;;3.60;2.10;;;;;;;11.12;100.00;98850.03;2631707;28;20420;-89
2022/10/03 05:36:01;;;;;;;4.78;2.00;;;;;;;11.29;100.00;98859.25;2631585;28;20060;-88
2022/10/03 05:37:29;;;;;;;7.50;2.20;;;;;;;10.96;100.00;98854.75;2611937;28;20550;-87
2022/10/03 05:39:18;;;;;;;8.23;1.80;;;;;;;11.16;100.00;98858.69;2630224;28;20078;-90
2022/10/03 05:40:39;;;;;;;7.93;2.15;;;;;;;10.84;100.00;98863.75;2633302;28;20044;-89
2022/10/03 05:42:24;;;;;;;8.20;3.03;;;;;;;10.91;100.00;98858.41;2630514;28;20048;-88
2022/10/03 05:44:05;;;;;;;7.25;2.10;;;;;;;10.67;100.00;98860.66;2613988;28;20070;-88
2022/10/03 05:45:38;;;;;;;4.00;2.00;;;;;;;10.59;100.00;98866.06;2631436;28;20505;-86
2022/10/03 05:47:47;;;;;;;3.85;1.67;;;;;;;10.76;100.00;98859.59;2633024;28;20059;-88
2022/10/03 05:49:25;;;;;;;5.88;2.03;;;;;;;10.81;100.00;98866.47;2632766;28;20479;-91
2022/10/03 05:51:13;;;;;;;5.28;2.00;;;;;;;10.90;100.00;98868.00;2630613;28;20047;-89
2022/10/03 05:52:49;;;;;;;8.43;2.70;;;;;;;10.69;100.00;98866.72;2632014;28;20056;-89
2022/10/03 05:54:48;;;;;;;8.85;2.35;;;;;;;10.76;100.00;98859.59;2589336;28;20425;-89
2022/10/03 05:56:10;;;;;;;5.15;2.17;;;;;;;10.79;100.00;98867.38;2633749;28;20582;-88
2022/10/03 05:58:13;;;;;;;6.78;2.35;;;;;;;10.66;100.00;98865.03;2633303;28;20071;-88
2022/10/03 05:59:45;;;;;;;9.85;2.50;;;;;;;10.93;100.00;98861.84;2631942;28;20051;-88
2022/10/03 06:01:03;;;;;;;5.63;1.98;;;;;;;10.96;100.00;98867.00;2631442;28;20404;-87
2022/10/03 06:02:54;;;;;;;6.15;2.10;;;;;;;10.86;100.00;98869.81;2633168;28;20047;-89
2022/10/03 06:04:31;;;;;;;7.55;2.05;;;;;;;10.88;100.00;98860.16;2564330;28;20461;-88
2022/10/03 06:05:56;;;;;;;4.53;2.65;;;;;;;10.85;100.00;98860.25;2569904;28;20050;-89
2022/10/03 06:07:24;;;;;;;10.95;2.65;;;;;;;10.81;100.00;98861.22;2632626;28;20047;-88
2022/10/03 06:08:56;;;;;;;7.85;2.20;;;;;;;10.98;100.00;98866.09;2630905;28;20085;-88
2022/10/03 06:10:24;;;;;;;5.75;3.58;;;;;;;10.70;100.00;98874.56;2633279;28;20052;-87
2022/10/03 06:11:46;;;;;;;7.22;2.10;;;;;;;10.67;100.00;98874.59;2632097;28;20055;-89
2022/10/03 06:13:19;;;;;;;7.63;2.47;;;;;;;11.07;100.00;98867.63;2632747;28;20078;-89
2022/10/03 06:14:56;;;;;;;7.35;2.30;;;;;;;11.26;100.00;98875.06;2632589;28;20055;-89
2022/10/03 06:16:40;;;;;;;9.38;2.30;;;;;;;11.36;100.00;98868.69;2631520;28;20047;-89
2022/10/03 06:18:41;;;;;;;3.40;1.85;;;;;;;11.51;100.00;98874.47;2632594;28;20059;-90
2022/10/03 06:20:22;;;;;;;7.53;1.83;;;;;;;11.48;100.00;98885.88;2574454;28;20054;-91
2022/10/03 06:21:46;;;;;;;6.32;1.90;;;;;;;11.67;100.00;98891.53;2574625;28;20464;-88
2022/10/03 06:23:30;;;;;;;8.27;2.17;;;;;;;11.34;100.00;98894.09;2574605;28;20420;-90
2022/10/03 06:25:15;;;;;;;4.68;2.30;;;;;;;11.59;100.00;98894.34;2574293;28;20141;-89
2022/10/03 06:27:09;;;;;;;7.22;2.20;;;;;;;11.48;100.00;98898.97;2626278;28;20058;-88
2022/10/03 06:28:34;;;;;;;7.22;2.15;;;;;;;11.32;100.00;98905.50;2618257;28;20423;-87
2022/10/03 06:30:17;;;;;;;7.75;1.83;;;;;;;11.51;100.00;98903.31;2631220;28;20166;-90
2022/10/03 06:32:00;;;;;;;3.85;1.95;;;;;;;11.16;100.00;98898.84;2630857;28;20059;-90
2022/10/03 06:33:39;;;;;;;3.50;1.85;;;;;;;11.22;100.00;98899.63;2632172;28;20043;-88
2022/10/03 06:35:23;;;;;;;9.52;1.80;;;;;;;11.51;100.00;98896.28;2630951;28;20105;-89
2022/10/03 06:36:54;;;;;;;8.00;1.70;;;;;;;11.61;100.00;98890.81;2632119;28;20950;-88
2022/10/03 06:38:33;;;;;;;6.55;1.85;;;;;;;11.52;100.00;98897.16;2631265;28;20052;-88
2022/10/03 06:40:19;;;;;;;6.47;1.95;;;;;;;11.27;100.00;98897.75;2631174;28;20595;-89
2022/10/03 06:41:44;;;;;;;5.30;1.80;;;;;;;11.30;100.00;98900.28;2632493;28;21025;-91
2022/10/03 06:43:29;;;;;;;5.32;2.10;;;;;;;11.27;100.00;98898.63;2632126;28;20518;-88
2022/10/03 06:45:13;;;;;;;6.22;1.83;;;;;;;11.12;100.00;98896.34;2630583;28;20077;-89
2022/10/03 06:46:53;;;;;;;4.55;1.70;;;;;;;11.47;100.00;98899.88;2632361;28;20079;-89
2022/10/03 06:48:27;;;;;;;7.45;1.80;;;;;;;11.55;100.00;98897.94;2631923;28;20509;-89
2022/10/03 06:50:10;;;;;;;8.93;1.90;;;;;;;11.69;100.00;98902.84;2631276;28;20052;-89
2022/10/03 06:51:48;;;;;;;7.82;2.05;;;;;;;11.57;100.00;98908.38;2632266;28;20051;-87
2022/10/03 06:53:18;;;;;;;6.63;2.00;;;;;;;11.21;100.00;98908.38;2631689;28;20063;-87
2022/10/03 06:54:34;;;;;;;5.85;2.10;;;;;;;11.61;100.00;98912.69;2630373;28;20055;-88
2022/10/03 06:56:07;;;;;;;4.13;2.00;;;;;;;11.56;100.00;98914.53;2632902;28;20043;-89
2022/10/03 06:57:53;;;;;;;5.10;1.88;;;;;;;11.41;100.00;98913.16;2624666;28;20418;-89
2022/10/03 06:59:40;;;;;;;5.13;2.13;;;;;;;11.77;100.00;98909.66;2628552;28;20052;-89
2022/10/03 07:01:11;;;;;;;6.20;2.13;;;;;;;11.79;100.00;98911.31;2629321;28;20056;-89
2022/10/03 07:02:48;;;;;;;5.20;2.10;;;;;;;11.81;100.00;98920.06;2631044;28;20055;-88
2022/10/03 07:04:07;;;;;;;4.90;1.80;;;;;;;11.69;100.00;98918.56;2630129;28;20075;-87
2022/10/03 07:05:52;;;;;;;3.55;1.73;;;;;;;12.12;100.00;98921.91;2630680;28;20091;-88
2022/10/03 07:07:18;;;;;;;5.88;1.90;;;;;;;12.01;100.00;98918.66;2621885;28;20048;-89
2022/10/03 07:08:56;;;;;;;4.30;1.67;;;;;;;12.27;100.00;98919.75;2627546;28;20058;-89
2022/10/03 07:10:30;;;;;;;5.55;1.60;;;;;;;12.18;100.00;98915.63;2631601;28;20531;-88
2022/10/03 07:12:32;;;;;;;4.95;1.63;;;;;;;11.90;100.00;98918.94;2630697;28;20068;-88
2022/10/03 07:14:26;;;;;;;5.93;2.03;;;;;;;12.11;100.00;98921.94;2622648;28;20056;-88
2022/10/03 07:16:00;;;;;;;5.03;1.60;;;;;;;12.06;100.00;98929.06;2629474;28;20046;-90
2022/10/03 07:17:33;;;;;;;6.13;1.60;;;;;;;11.80;100.00;98925.31;2630868;28;20090;-88
2022/10/03 07:19:25;;;;;;;12.93;2.75;;;;;;;11.54;100.00;98927.69;2631643;28;20522;-88
2022/10/03 07:20:52;;;;;;;1.88;1.02;;;;;;;11.61;100.00;98930.16;2633324;28;20051;-88
2022/10/03 07:22:28;;;;;;;2.80;1.70;;;;;;;11.55;100.00;98926.78;2630909;28;20460;-86
2022/10/03 07:24:05;;;;;;;4.22;1.35;;;;;;;11.62;100.00;98924.88;2633605;28;20048;-90
2022/10/03 07:26:07;;;;;;;4.13;1.50;;;;;;;12.05;100.00;98938.69;2632422;28;20510;-88
2022/10/03 07:28:06;;;;;;;6.85;1.77;;;;;;;11.94;100.00;98938.94;2631603;28;20120;-88
2022/10/03 07:29:37;;;;;;;3.55;1.40;;;;;;;11.84;100.00;98940.06;2630685;28;20060;-89
2022/10/03 07:31:19;;;;;;;4.88;1.42;;;;;;;12.08;100.00;98948.25;2631352;28;20056;-88
2022/10/03 07:33:08;;;;;;;4.65;1.75;;;;;;;12.24;100.00;98943.47;2631123;28;20105;-86
2022/10/03 07:34:30;;;;;;;3.60;1.30;;;;;;;12.06;100.00;98947.44;2630182;28;20410;-89